Portada
METAR-TAF:

METAR-TAF

Aeroports :

Red Oak Municipal Airport

Red Oak, Iowa, Estats Units d'Amèrica

latitud: 41-01N, longitud: 095-16W, altitud: 318 m

Observació

L'informe es va fer fa 18 minuts, a les 12:35 UTC
Vent 5 kt del Est/Nord-Est
Temperatura 20°C
Humitat 100%
Pressió 1025 hPa
Visibilitat: 16.1 km
Escasses núvols a una alçada de 700 ft
Núvols disperses a una alçada de 1300 ft
Cel ennuvolat a una alçada de 2100 ft

METAR: KRDK 201235Z AUTO 07005KT 10SM FEW007 SCT013 BKN021 20/20 A3027 RMK AO2

Hora: 07:53 (12:53 UTC)


TAF: manca

Observacions i pronòstics meteorològics de més de 4000 aeroports (METAR i TAF).

Les estacions disponibles són els punts grocs i vermells al mapa.

Posi el ratolí al punt desitjat per veure el nom de l'estació.

Feu clic per veure les observacions i els pronòstics meteorològics.

Per canviar el mapa: feu clic els botons verds amb una creu de color negre per apropar; al botó verd amb un guió per allunyar la imatge; o en les fletxes verdes per a mapes adjacents.


METAR-TAF: